»·PEaware :: N717TS KCRQ-KTSP

N717TS :: KCRQ-KTSP

FLIGHT INFORMATION

Flight Status: Arrived
Operator: Privately registered:
United States
More flights under this callsign
Pilot: Ty S. (2873)
Aircraft: SOCATA TBM-900
(TBM9)
More flights by this aircraft type
Origin: KCRQ McClellan-Palomar
United States
Destination: KTSP Tehachapi Mun
United States
More flights between these airports :: More routes between these airports
Route: +TANNR V186 PDZ V197 WIJYI
File this flight plan on PilotEdge
Remarks:
Altitude:
(Current/Filed)
12,000ft
Speed:
(Current/Filed)
300kts
Departed: 30-Dec-19 05:47 PM
Arrived: 30-Dec-19 06:31 PM
Distance/Time
Traveled:
133nm/0:44
Distance/Time
To Go:
Arrived

Flight Plot

Page will automatically refresh every two minutes.

Flight plan parsing failed; only flown route is shown


Map Options




Map Legend


Flown Route
Filed Route
Departure Airport
Arrival Airport
Navaid (VOR, NDB)
Fix

Horizontal Profiles

Position Reports

Time Latitude Longitude Heading Altitude Ground
Speed
30-Dec-19 17:07 33.127681 -117.275024 166 334ft 0kts
30-Dec-19 17:08 33.127681 -117.275024 166 334ft 0kts
30-Dec-19 17:09 33.127681 -117.275024 166 334ft 0kts
30-Dec-19 17:10 33.127681 -117.275024 166 334ft 0kts
30-Dec-19 17:11 33.127681 -117.275024 166 334ft 0kts
30-Dec-19 17:12 33.127681 -117.275024 166 334ft 0kts
30-Dec-19 17:13 33.127681 -117.275024 166 334ft 0kts
30-Dec-19 17:14 33.127681 -117.275024 166 334ft 0kts
30-Dec-19 17:15 33.127681 -117.275024 166 334ft 0kts
30-Dec-19 17:16 33.127681 -117.275024 166 334ft 0kts
30-Dec-19 17:17 33.127681 -117.275024 166 334ft 0kts
30-Dec-19 17:18 33.127681 -117.275024 166 334ft 0kts
30-Dec-19 17:19 33.127681 -117.275024 166 334ft 0kts
30-Dec-19 17:20 33.127681 -117.275024 166 334ft 0kts
30-Dec-19 17:21 33.127681 -117.275024 166 334ft 0kts
30-Dec-19 17:22 33.127681 -117.275024 166 334ft 0kts
30-Dec-19 17:23 33.127681 -117.275024 166 334ft 0kts
30-Dec-19 17:24 33.127681 -117.275024 166 334ft 0kts
30-Dec-19 17:25 33.127681 -117.275024 166 334ft 0kts
30-Dec-19 17:26 33.127681 -117.275024 166 334ft 0kts
30-Dec-19 17:27 33.127681 -117.275024 166 334ft 0kts
30-Dec-19 17:28 33.127681 -117.275024 166 334ft 0kts
30-Dec-19 17:29 33.127681 -117.275024 166 334ft 0kts
30-Dec-19 17:30 33.127681 -117.275024 166 334ft 0kts
30-Dec-19 17:31 33.127681 -117.275024 166 334ft 0kts
30-Dec-19 17:32 33.127681 -117.275024 166 334ft 0kts
30-Dec-19 17:33 33.127681 -117.275024 166 334ft 0kts
30-Dec-19 17:34 33.127681 -117.275024 166 334ft 0kts
30-Dec-19 17:35 33.127681 -117.275024 166 334ft 0kts
30-Dec-19 17:36 33.127681 -117.275024 166 334ft 0kts
30-Dec-19 17:37 33.127681 -117.275024 166 334ft 0kts
30-Dec-19 17:38 33.127681 -117.275024 166 334ft 0kts
30-Dec-19 17:39 33.127681 -117.275024 166 334ft 0kts
30-Dec-19 17:40 33.127681 -117.275024 166 334ft 0kts
30-Dec-19 17:41 33.127681 -117.275024 166 334ft 0kts
30-Dec-19 17:42 33.127755 -117.274791 357 334ft 2kts
30-Dec-19 17:43 33.128533 -117.273249 77 334ft 5kts
30-Dec-19 17:44 33.128762 -117.272381 11 334ft 0kts
30-Dec-19 17:45 33.129025 -117.272322 9 334ft 6kts
30-Dec-19 17:47 33.129343 -117.273488 261 334ft 43kts
30-Dec-19 17:48 33.123522 -117.310832 261 1616ft 145kts
30-Dec-19 17:49 33.116417 -117.362081 274 3547ft 163kts
30-Dec-19 17:50 33.151703 -117.388548 341 5711ft 159kts
30-Dec-19 17:51 33.191199 -117.377788 31 7742ft 158kts
30-Dec-19 17:52 33.228686 -117.349950 33 9805ft 160kts
30-Dec-19 17:53 33.273427 -117.316047 33 10128ft 220kts
30-Dec-19 17:54 33.328267 -117.274413 33 10048ft 242kts
30-Dec-19 17:55 33.385571 -117.230815 33 10026ft 244kts
30-Dec-19 17:56 33.438245 -117.190694 34 11460ft 208kts
30-Dec-19 17:57 33.492661 -117.173118 328 12035ft 244kts
30-Dec-19 17:58 33.550526 -117.222633 329 12032ft 258kts
30-Dec-19 17:59 33.610356 -117.272470 329 12043ft 261kts
30-Dec-19 18:00 33.670435 -117.322524 329 12045ft 262kts
30-Dec-19 18:01 33.730813 -117.372911 329 12046ft 262kts
30-Dec-19 18:02 33.790981 -117.423220 329 12049ft 262kts
30-Dec-19 18:03 33.851202 -117.473663 329 12053ft 262kts
30-Dec-19 18:04 33.911316 -117.524103 329 12055ft 262kts
30-Dec-19 18:05 33.958524 -117.594343 311 12051ft 269kts
30-Dec-19 18:06 34.003192 -117.666068 310 12037ft 269kts
30-Dec-19 18:07 34.048393 -117.738756 310 12035ft 269kts
30-Dec-19 18:08 34.101097 -117.798346 341 12047ft 256kts
30-Dec-19 18:08 34.157040 -117.826188 341 12045ft 257kts
30-Dec-19 18:10 34.235375 -117.865231 341 12045ft 258kts
30-Dec-19 18:11 34.302326 -117.898663 341 12050ft 258kts
30-Dec-19 18:11 34.357803 -117.926406 341 12063ft 258kts
30-Dec-19 18:12 34.424534 -117.959834 341 12089ft 257kts
30-Dec-19 18:14 34.504290 -117.999858 341 11979ft 263kts
30-Dec-19 18:14 34.561456 -118.028602 341 11989ft 262kts
30-Dec-19 18:15 34.630128 -118.063721 333 11982ft 266kts
30-Dec-19 18:16 34.683068 -118.130895 317 11992ft 271kts
30-Dec-19 18:18 34.744323 -118.210660 317 11995ft 271kts
30-Dec-19 18:18 34.787862 -118.267441 317 11996ft 271kts
30-Dec-19 18:19 34.840243 -118.335868 317 11883ft 275kts
30-Dec-19 18:20 34.896401 -118.409375 316 10371ft 298kts
30-Dec-19 18:21 34.951687 -118.481917 316 10003ft 275kts
30-Dec-19 18:22 35.003420 -118.549437 323 10001ft 264kts
30-Dec-19 18:23 35.061187 -118.525927 49 9801ft 217kts
30-Dec-19 18:24 35.081427 -118.463276 80 8030ft 189kts
30-Dec-19 18:25 35.096631 -118.401972 38 6167ft 187kts
30-Dec-19 18:26 35.123473 -118.435195 276 5389ft 200kts
30-Dec-19 18:27 35.137572 -118.482660 295 4887ft 116kts
30-Dec-19 18:28 35.153491 -118.474422 96 4743ft 96kts
30-Dec-19 18:29 35.140608 -118.449108 125 4129ft 85kts
30-Dec-19 18:30 35.134555 -118.439209 308 4003ft 6kts
30-Dec-19 18:31 35.134604 -118.440316 70 4003ft 0kts
30-Dec-19 18:32 35.134604 -118.440316 70 4003ft 0kts
30-Dec-19 18:33 35.134604 -118.440316 70 4003ft 0kts
30-Dec-19 18:34 35.134604 -118.440316 70 4003ft 0kts
30-Dec-19 18:35 35.134604 -118.440316 70 4003ft 0kts
30-Dec-19 18:36 35.134604 -118.440316 70 4003ft 0kts
30-Dec-19 18:37 35.134604 -118.440316 70 4003ft 0kts
30-Dec-19 18:38 35.134604 -118.440316 70 4003ft 0kts
30-Dec-19 18:39 35.134604 -118.440316 70 4003ft 0kts
30-Dec-19 18:40 35.134604 -118.440316 70 4003ft 0kts

Navigation Log

Ident Type
Flight plan parsing failed, navigation log unavailable